Time;durP1;ratioP1;P1;durP2;ratioP2;P2;SDS_P1;SDS_P2;PMS_P1;PMS_P2;Temp;Humidity;BMP_temperature;BMP_pressure;BME280_temperature;BME280_humidity;BME280_pressure;Samples;Min_cycle;Max_cycle;Signal;HPM_P1;HPM_P2
2022/02/26 00:02:17;;;;;;;;;;;2.40;98.20;;;;;;5084514;28;20182;-72
2022/02/26 00:04:43;;;;;;;;;;;2.40;98.00;;;;;;5085585;28;19939;-71
2022/02/26 00:07:09;;;;;;;;;;;2.50;98.00;;;;;;5102070;28;19908;-69
2022/02/26 00:09:34;;;;;;;;;;;2.40;97.90;;;;;;5102030;28;19915;-69
2022/02/26 00:12:00;;;;;;;;;;;2.40;97.90;;;;;;5102839;28;19930;-70
2022/02/26 00:14:26;;;;;;;;;;;2.40;98.00;;;;;;5103315;28;19978;-70
2022/02/26 00:16:52;;;;;;;;;;;2.40;98.00;;;;;;5103962;28;19971;-71
2022/02/26 00:19:17;;;;;;;;;;;2.40;98.00;;;;;;5105373;28;19909;-71
2022/02/26 00:21:43;;;;;;;;;;;2.40;97.90;;;;;;5104972;28;19908;-72
2022/02/26 00:24:09;;;;;;;;;;;2.30;98.10;;;;;;5085996;28;19962;-71
2022/02/26 00:26:35;;;;;;;;;;;2.30;98.10;;;;;;5103104;28;19962;-71
2022/02/26 00:29:01;;;;;;;;;;;2.20;98.10;;;;;;5085153;28;19908;-71
2022/02/26 00:31:26;;;;;;;;;;;2.20;98.10;;;;;;5101693;28;19994;-71
2022/02/26 00:33:52;;;;;;;;;;;2.20;98.10;;;;;;5068014;28;19908;-71
2022/02/26 00:36:18;;;;;;;;;;;2.20;98.10;;;;;;5085061;28;19908;-72
2022/02/26 00:38:44;;;;;;;;;;;2.10;98.10;;;;;;5085054;28;19915;-70
2022/02/26 00:41:09;;;;;;;;;;;2.10;98.20;;;;;;5101560;28;19908;-71
2022/02/26 00:43:35;;;;;;;;;;;2.00;98.40;;;;;;5084923;28;20255;-72
2022/02/26 00:46:01;;;;;;;;;;;2.00;98.50;;;;;;5067944;28;19934;-71
2022/02/26 00:51:11;;;;;;;;;;;2.00;98.40;;;;;;5102553;28;19946;-71
2022/02/26 00:53:36;;;;;;;;;;;1.90;98.50;;;;;;5102713;28;19908;-72
2022/02/26 00:56:02;;;;;;;;;;;1.90;98.70;;;;;;5102961;28;19908;-72
2022/02/26 00:58:28;;;;;;;;;;;1.90;98.80;;;;;;5088122;28;19912;-71
2022/02/26 01:00:54;;;;;;;;;;;1.80;98.70;;;;;;5106390;28;19908;-72
2022/02/26 01:03:20;;;;;;;;;;;1.80;98.70;;;;;;5105053;28;19967;-72
2022/02/26 01:05:45;;;;;;;;;;;1.80;98.80;;;;;;5088387;28;19919;-71
2022/02/26 01:08:11;;;;;;;;;;;1.80;98.80;;;;;;5106431;28;19969;-72
2022/02/26 01:10:37;;;;;;;;;;;1.70;98.90;;;;;;5106048;28;19907;-73
2022/02/26 01:13:02;;;;;;;;;;;1.70;98.90;;;;;;5106138;28;19975;-72
2022/02/26 01:15:28;;;;;;;;;;;1.70;99.00;;;;;;5105105;28;20114;-72
2022/02/26 01:17:54;;;;;;;;;;;1.60;99.00;;;;;;5105987;28;19908;-70
2022/02/26 01:20:20;;;;;;;;;;;1.60;99.10;;;;;;5106060;28;19915;-70
2022/02/26 01:22:45;;;;;;;;;;;1.60;99.10;;;;;;5104679;28;20247;-70
2022/02/26 01:25:11;;;;;;;;;;;1.60;99.10;;;;;;5104827;28;19912;-70
2022/02/26 01:27:39;;;;;;;;;;;1.70;98.90;;;;;;5104871;28;20168;-70
2022/02/26 01:30:08;;;;;;;;;;;1.70;98.90;;;;;;5105994;28;19916;-70
2022/02/26 01:32:33;;;;;;;;;;;1.60;98.90;;;;;;5087326;28;19922;-70
2022/02/26 01:34:59;;;;;;;;;;;1.60;98.90;;;;;;5105772;28;19908;-71
2022/02/26 01:37:25;;;;;;;;;;;1.60;99.00;;;;;;5105864;28;20155;-69
2022/02/26 01:39:50;;;;;;;;;;;1.70;99.10;;;;;;5105816;28;19908;-70
2022/02/26 01:42:20;;;;;;;;;;;1.70;99.00;;;;;;5104276;28;19912;-69
2022/02/26 01:44:49;;;;;;;;;;;1.80;99.10;;;;;;5104501;28;19953;-71
2022/02/26 01:47:15;;;;;;;;;;;1.90;99.00;;;;;;5087644;28;20199;-71
2022/02/26 01:49:41;;;;;;;;;;;1.90;99.00;;;;;;5104470;28;19989;-71
2022/02/26 01:52:07;;;;;;;;;;;1.90;98.90;;;;;;5087260;28;19908;-71
2022/02/26 01:54:33;;;;;;;;;;;2.00;98.90;;;;;;5104354;28;20175;-71
2022/02/26 01:56:59;;;;;;;;;;;2.00;98.70;;;;;;5104362;28;19915;-71
2022/02/26 01:59:25;;;;;;;;;;;2.10;98.80;;;;;;5087514;28;19908;-72
2022/02/26 02:01:50;;;;;;;;;;;2.10;98.80;;;;;;5103850;28;19908;-72
2022/02/26 02:04:16;;;;;;;;;;;2.10;98.80;;;;;;5087142;28;20195;-72
2022/02/26 02:06:42;;;;;;;;;;;2.10;98.80;;;;;;5086649;28;19927;-72
2022/02/26 02:09:08;;;;;;;;;;;2.10;98.70;;;;;;5102861;28;19908;-70
2022/02/26 02:11:34;;;;;;;;;;;2.10;98.70;;;;;;5103649;28;19967;-71
2022/02/26 02:14:00;;;;;;;;;;;2.20;98.70;;;;;;5104187;28;19999;-70
2022/02/26 02:16:26;;;;;;;;;;;2.20;98.60;;;;;;5087188;28;19912;-69
2022/02/26 02:18:52;;;;;;;;;;;2.20;98.60;;;;;;5105146;28;19908;-71
2022/02/26 02:21:19;;;;;;;;;;;2.20;98.50;;;;;;5086804;28;19908;-71
2022/02/26 02:23:45;;;;;;;;;;;2.20;98.50;;;;;;5087094;28;19908;-71
2022/02/26 02:26:10;;;;;;;;;;;2.20;98.50;;;;;;5103829;28;20226;-70
2022/02/26 02:28:38;;;;;;;;;;;2.10;98.60;;;;;;5105054;28;19975;-70
2022/02/26 02:31:04;;;;;;;;;;;2.10;98.50;;;;;;5103474;28;19946;-69
2022/02/26 02:33:37;;;;;;;;;;;2.10;98.50;;;;;;5103351;28;19908;-69
2022/02/26 02:36:03;;;;;;;;;;;2.00;98.50;;;;;;5103729;28;19915;-69
2022/02/26 02:38:28;;;;;;;;;;;2.00;98.50;;;;;;5104508;28;19908;-69
2022/02/26 02:40:54;;;;;;;;;;;2.00;98.40;;;;;;5104307;28;19933;-69
2022/02/26 02:43:20;;;;;;;;;;;2.00;98.50;;;;;;5103489;28;19908;-71
2022/02/26 02:45:45;;;;;;;;;;;1.90;98.50;;;;;;5103447;28;19913;-72
2022/02/26 02:48:11;;;;;;;;;;;1.80;98.70;;;;;;5103140;28;19967;-72
2022/02/26 02:50:37;;;;;;;;;;;1.80;98.80;;;;;;5104216;28;20278;-72
2022/02/26 02:53:03;;;;;;;;;;;1.80;98.80;;;;;;5102915;28;19951;-70
2022/02/26 02:55:29;;;;;;;;;;;1.80;98.80;;;;;;5086437;28;19915;-71
2022/02/26 02:57:55;;;;;;;;;;;1.80;98.90;;;;;;5103035;28;20115;-71
2022/02/26 03:00:21;;;;;;;;;;;1.70;98.90;;;;;;5086263;28;19946;-70
2022/02/26 03:02:46;;;;;;;;;;;1.70;99.00;;;;;;5103491;28;19912;-72
2022/02/26 03:05:12;;;;;;;;;;;1.70;98.90;;;;;;5104038;28;19979;-71
2022/02/26 03:07:38;;;;;;;;;;;1.70;99.00;;;;;;5104016;28;20203;-71
2022/02/26 03:10:04;;;;;;;;;;;1.70;99.00;;;;;;5104082;28;19915;-71
2022/02/26 03:12:30;;;;;;;;;;;1.70;99.00;;;;;;5103747;28;19979;-71
2022/02/26 03:14:56;;;;;;;;;;;1.70;98.80;;;;;;5102842;28;19908;-71
2022/02/26 03:17:21;;;;;;;;;;;1.60;98.90;;;;;;5102858;28;19949;-70
2022/02/26 03:19:49;;;;;;;;;;;1.60;99.00;;;;;;5103222;28;19915;-70
2022/02/26 03:22:22;;;;;;;;;;;1.60;99.10;;;;;;5102492;28;19951;-71
2022/02/26 03:24:48;;;;;;;;;;;1.50;99.00;;;;;;5086139;28;19908;-70
2022/02/26 03:27:14;;;;;;;;;;;1.50;99.00;;;;;;5103772;28;19908;-70
2022/02/26 03:29:39;;;;;;;;;;;1.50;99.10;;;;;;5085787;28;19911;-70
2022/02/26 03:32:06;;;;;;;;;;;1.40;99.10;;;;;;5085461;28;19975;-69
2022/02/26 03:34:31;;;;;;;;;;;1.40;99.10;;;;;;5103678;28;19909;-69
2022/02/26 03:36:57;;;;;;;;;;;1.30;99.20;;;;;;5102645;28;19923;-70
2022/02/26 03:39:24;;;;;;;;;;;1.20;99.30;;;;;;5102581;28;19908;-70
2022/02/26 03:41:49;;;;;;;;;;;1.20;99.40;;;;;;5102180;28;19914;-70
2022/02/26 03:44:15;;;;;;;;;;;1.20;99.40;;;;;;5102393;28;20153;-69
2022/02/26 03:46:41;;;;;;;;;;;1.20;99.30;;;;;;5103407;28;19912;-69
2022/02/26 03:49:07;;;;;;;;;;;1.20;99.30;;;;;;5103135;28;19987;-68
2022/02/26 03:51:33;;;;;;;;;;;1.10;99.50;;;;;;5085171;28;19920;-70
2022/02/26 03:53:59;;;;;;;;;;;1.10;99.50;;;;;;5102230;28;19908;-70
2022/02/26 03:56:24;;;;;;;;;;;1.10;99.40;;;;;;5102309;28;19971;-71
2022/02/26 03:58:51;;;;;;;;;;;1.10;99.40;;;;;;5102202;28;20194;-70
2022/02/26 04:01:17;;;;;;;;;;;1.00;99.30;;;;;;5101952;28;19908;-70
2022/02/26 04:03:44;;;;;;;;;;;1.00;99.40;;;;;;5101715;28;19939;-70
2022/02/26 04:06:09;;;;;;;;;;;1.00;99.40;;;;;;5101955;28;19979;-70
2022/02/26 04:08:35;;;;;;;;;;;1.00;99.50;;;;;;5085240;28;20222;-68
2022/02/26 04:11:01;;;;;;;;;;;1.00;99.60;;;;;;5101757;28;20111;-68
2022/02/26 04:13:26;;;;;;;;;;;0.90;99.60;;;;;;5103092;28;19911;-67
2022/02/26 04:15:52;;;;;;;;;;;0.90;99.60;;;;;;5101880;28;19912;-68
2022/02/26 04:18:18;;;;;;;;;;;0.90;99.60;;;;;;5102784;28;19908;-70
2022/02/26 04:20:43;;;;;;;;;;;1.00;99.70;;;;;;5102696;28;20226;-70
2022/02/26 04:23:09;;;;;;;;;;;1.00;99.70;;;;;;5102995;28;19915;-71
2022/02/26 04:25:36;;;;;;;;;;;1.00;99.60;;;;;;5101853;28;19912;-70
2022/02/26 04:28:02;;;;;;;;;;;1.10;99.60;;;;;;5103004;28;19912;-71
2022/02/26 04:30:28;;;;;;;;;;;1.10;99.70;;;;;;5102938;28;19915;-71
2022/02/26 04:32:53;;;;;;;;;;;1.10;99.60;;;;;;5070373;28;19975;-69
2022/02/26 04:35:19;;;;;;;;;;;1.10;99.60;;;;;;5107015;28;19915;-70
2022/02/26 04:37:45;;;;;;;;;;;1.10;99.60;;;;;;5088854;28;19912;-69
2022/02/26 04:40:11;;;;;;;;;;;1.20;99.50;;;;;;5105832;28;20245;-70
2022/02/26 04:42:37;;;;;;;;;;;1.20;99.40;;;;;;5106708;28;19922;-70
2022/02/26 04:45:07;;;;;;;;;;;1.20;99.40;;;;;;5105844;28;19946;-70
2022/02/26 04:47:33;;;;;;;;;;;1.30;99.10;;;;;;5106969;28;19983;-70
2022/02/26 04:49:59;;;;;;;;;;;1.30;99.10;;;;;;5106854;28;19908;-69
2022/02/26 04:52:24;;;;;;;;;;;1.30;99.00;;;;;;5105738;28;19912;-69
2022/02/26 04:54:50;;;;;;;;;;;1.40;98.90;;;;;;5088937;28;19916;-69
2022/02/26 04:57:16;;;;;;;;;;;1.30;98.80;;;;;;5107061;28;19935;-70
2022/02/26 04:59:41;;;;;;;;;;;1.30;98.80;;;;;;5105666;28;19967;-69
2022/02/26 05:04:35;;;;;;;;;;;1.30;98.70;;;;;;5082396;28;19974;-73
2022/02/26 05:07:01;;;;;;;;;;;1.20;98.80;;;;;;5073118;28;19951;-74
2022/02/26 05:09:27;;;;;;;;;;;1.20;98.70;;;;;;5086271;28;19915;-73
2022/02/26 05:11:52;;;;;;;;;;;1.20;98.70;;;;;;5085865;28;19908;-73
2022/02/26 05:14:18;;;;;;;;;;;1.10;98.80;;;;;;5085011;28;19909;-71
2022/02/26 05:16:44;;;;;;;;;;;1.20;98.70;;;;;;5086035;28;19916;-72
2022/02/26 05:19:10;;;;;;;;;;;1.20;98.70;;;;;;5085734;28;19975;-72
2022/02/26 05:21:35;;;;;;;;;;;1.20;99.00;;;;;;5085680;28;19908;-71
2022/02/26 05:24:01;;;;;;;;;;;1.20;98.80;;;;;;5086144;28;19909;-72
2022/02/26 05:26:27;;;;;;;;;;;1.20;98.90;;;;;;5085911;28;20104;-72
2022/02/26 05:28:52;;;;;;;;;;;1.20;98.80;;;;;;5085830;28;20211;-71
2022/02/26 05:31:18;;;;;;;;;;;1.30;98.80;;;;;;5085361;28;19920;-71
2022/02/26 05:33:44;;;;;;;;;;;1.30;98.90;;;;;;5085340;28;19924;-70
2022/02/26 05:36:09;;;;;;;;;;;1.30;98.90;;;;;;5085673;28;19909;-71
2022/02/26 05:38:35;;;;;;;;;;;1.50;98.80;;;;;;5085773;28;19979;-71
2022/02/26 05:41:01;;;;;;;;;;;1.40;98.60;;;;;;5085435;28;19916;-71
2022/02/26 05:43:26;;;;;;;;;;;1.50;98.60;;;;;;5085242;28;19975;-71
2022/02/26 05:45:52;;;;;;;;;;;1.60;98.60;;;;;;5067668;28;19916;-70
2022/02/26 05:48:18;;;;;;;;;;;1.50;98.50;;;;;;5085191;28;19916;-69
2022/02/26 05:50:43;;;;;;;;;;;1.50;98.70;;;;;;5085085;28;19908;-72
2022/02/26 05:53:09;;;;;;;;;;;1.60;98.50;;;;;;5085398;28;20016;-71
2022/02/26 05:55:35;;;;;;;;;;;1.50;98.60;;;;;;5085330;28;19908;-71
2022/02/26 05:58:00;;;;;;;;;;;1.50;98.70;;;;;;5085388;28;19908;-71
2022/02/26 06:00:26;;;;;;;;;;;1.50;98.70;;;;;;5085151;28;19916;-71
2022/02/26 06:02:52;;;;;;;;;;;1.60;98.80;;;;;;5066916;28;19935;-72
2022/02/26 06:05:18;;;;;;;;;;;1.60;98.70;;;;;;5085172;28;20097;-71
2022/02/26 06:07:43;;;;;;;;;;;1.60;98.60;;;;;;5085250;28;19940;-70
2022/02/26 06:10:09;;;;;;;;;;;1.60;98.80;;;;;;5084460;28;19919;-72
2022/02/26 06:12:35;;;;;;;;;;;1.60;98.80;;;;;;5084817;28;19946;-72
2022/02/26 06:15:01;;;;;;;;;;;1.50;98.70;;;;;;5084975;28;19915;-72
2022/02/26 06:17:27;;;;;;;;;;;1.50;98.80;;;;;;5067365;28;20242;-72
2022/02/26 06:19:53;;;;;;;;;;;1.50;98.70;;;;;;5084830;28;19908;-70
2022/02/26 06:22:18;;;;;;;;;;;1.50;98.90;;;;;;5084608;28;19970;-70
2022/02/26 06:24:44;;;;;;;;;;;1.60;98.80;;;;;;5084757;28;19909;-72
2022/02/26 06:27:10;;;;;;;;;;;1.70;98.70;;;;;;5084978;28;20097;-71
2022/02/26 06:29:36;;;;;;;;;;;1.70;98.70;;;;;;5085293;28;19968;-72
2022/02/26 06:32:01;;;;;;;;;;;1.70;98.50;;;;;;5050689;28;19915;-72
2022/02/26 06:34:28;;;;;;;;;;;1.80;98.50;;;;;;5051191;28;19908;-71
2022/02/26 06:36:54;;;;;;;;;;;1.80;98.50;;;;;;5068095;28;19913;-71
2022/02/26 06:39:19;;;;;;;;;;;1.80;98.50;;;;;;5086181;28;19967;-70
2022/02/26 06:41:45;;;;;;;;;;;1.90;98.40;;;;;;5085767;28;19914;-71
2022/02/26 06:44:11;;;;;;;;;;;1.90;98.30;;;;;;5067998;28;19908;-71
2022/02/26 06:46:38;;;;;;;;;;;1.90;98.40;;;;;;5067870;28;19920;-71
2022/02/26 06:49:06;;;;;;;;;;;1.90;98.30;;;;;;5050390;28;19983;-71
2022/02/26 06:51:32;;;;;;;;;;;1.90;98.10;;;;;;5084111;28;20199;-72
2022/02/26 06:53:59;;;;;;;;;;;2.00;98.10;;;;;;5083876;28;19909;-72
2022/02/26 06:56:24;;;;;;;;;;;2.00;98.00;;;;;;5049567;28;20092;-72
2022/02/26 06:58:51;;;;;;;;;;;2.00;98.10;;;;;;5084127;28;19915;-72
2022/02/26 07:01:17;;;;;;;;;;;2.20;97.90;;;;;;5083817;28;20052;-72
2022/02/26 07:03:43;;;;;;;;;;;2.20;97.80;;;;;;5083800;28;19950;-71
2022/02/26 07:06:08;;;;;;;;;;;2.10;97.90;;;;;;5084439;28;19912;-72
2022/02/26 07:08:34;;;;;;;;;;;2.20;97.80;;;;;;5084064;28;19909;-72
2022/02/26 07:11:00;;;;;;;;;;;2.20;97.70;;;;;;5084169;28;19935;-72
2022/02/26 07:13:26;;;;;;;;;;;2.20;97.90;;;;;;5084658;28;19908;-71
2022/02/26 07:15:51;;;;;;;;;;;2.30;97.50;;;;;;5084771;28;19977;-70
2022/02/26 07:18:17;;;;;;;;;;;2.40;97.30;;;;;;5084321;28;19909;-69
2022/02/26 07:20:43;;;;;;;;;;;2.40;97.30;;;;;;5084348;28;19908;-70
2022/02/26 07:23:08;;;;;;;;;;;2.50;97.20;;;;;;5084186;28;19912;-69
2022/02/26 07:25:34;;;;;;;;;;;2.50;97.00;;;;;;5066736;28;19913;-69
2022/02/26 07:28:00;;;;;;;;;;;2.50;96.90;;;;;;5084185;28;19908;-69
2022/02/26 07:30:26;;;;;;;;;;;2.50;96.70;;;;;;5084292;28;19957;-69
2022/02/26 07:32:51;;;;;;;;;;;2.70;96.60;;;;;;5083796;28;19916;-69
2022/02/26 07:35:17;;;;;;;;;;;2.60;96.80;;;;;;5084114;28;19930;-70
2022/02/26 07:37:43;;;;;;;;;;;2.50;97.10;;;;;;5083699;28;19909;-71
2022/02/26 07:40:12;;;;;;;;;;;2.60;96.80;;;;;;5065574;28;20068;-71
2022/02/26 07:42:38;;;;;;;;;;;2.50;96.90;;;;;;5065184;28;20115;-71
2022/02/26 07:45:04;;;;;;;;;;;2.60;97.00;;;;;;5083238;28;19975;-71
2022/02/26 07:47:30;;;;;;;;;;;2.60;96.70;;;;;;5083260;28;19944;-71
2022/02/26 07:49:56;;;;;;;;;;;2.50;96.70;;;;;;5065160;28;19915;-71
2022/02/26 07:52:22;;;;;;;;;;;2.60;96.50;;;;;;5082776;28;19943;-73
2022/02/26 07:54:51;;;;;;;;;;;2.60;96.50;;;;;;5083091;28;19909;-72
2022/02/26 07:57:17;;;;;;;;;;;2.60;96.30;;;;;;5048987;28;19909;-72
2022/02/26 07:59:43;;;;;;;;;;;2.60;96.20;;;;;;5048698;28;20301;-72
2022/02/26 08:02:09;;;;;;;;;;;2.50;95.80;;;;;;5082756;28;19908;-72
2022/02/26 08:04:37;;;;;;;;;;;2.60;96.10;;;;;;5082904;28;19912;-73
2022/02/26 08:07:06;;;;;;;;;;;2.60;96.10;;;;;;5083055;28;19987;-71
2022/02/26 08:09:32;;;;;;;;;;;2.60;96.30;;;;;;5083478;28;19908;-70
2022/02/26 08:11:58;;;;;;;;;;;2.70;96.40;;;;;;5083905;28;20147;-73
2022/02/26 08:14:23;;;;;;;;;;;2.70;96.40;;;;;;5082866;28;19908;-72
2022/02/26 08:16:49;;;;;;;;;;;2.70;95.80;;;;;;5082937;28;19908;-72
2022/02/26 08:19:15;;;;;;;;;;;2.80;95.80;;;;;;5048261;28;19936;-72
2022/02/26 08:21:41;;;;;;;;;;;2.80;95.90;;;;;;5082714;28;19943;-72
2022/02/26 08:24:06;;;;;;;;;;;2.90;96.10;;;;;;5082834;28;19915;-72
2022/02/26 08:26:32;;;;;;;;;;;2.90;95.70;;;;;;5064897;28;19920;-73
2022/02/26 08:28:58;;;;;;;;;;;2.90;95.20;;;;;;5048747;28;19908;-72
2022/02/26 08:31:24;;;;;;;;;;;3.00;95.30;;;;;;5098207;28;20270;-72
2022/02/26 08:33:50;;;;;;;;;;;3.00;95.00;;;;;;5082589;28;19974;-72
2022/02/26 08:36:15;;;;;;;;;;;3.10;94.80;;;;;;5064906;28;20160;-71
2022/02/26 08:38:41;;;;;;;;;;;3.10;94.90;;;;;;5064779;28;19908;-71
2022/02/26 08:41:07;;;;;;;;;;;3.20;94.70;;;;;;5082260;28;19938;-72
2022/02/26 08:43:32;;;;;;;;;;;3.20;94.80;;;;;;5064795;28;19916;-71
2022/02/26 08:45:58;;;;;;;;;;;3.30;94.90;;;;;;5064798;28;19916;-72
2022/02/26 08:48:24;;;;;;;;;;;3.30;94.30;;;;;;5082368;28;19908;-73
2022/02/26 08:50:49;;;;;;;;;;;3.40;94.30;;;;;;5064571;28;19983;-73
2022/02/26 08:53:15;;;;;;;;;;;3.40;93.70;;;;;;5064770;28;19908;-73
2022/02/26 08:55:41;;;;;;;;;;;3.40;93.60;;;;;;5057685;28;19909;-74
2022/02/26 08:58:07;;;;;;;;;;;3.40;93.50;;;;;;5059478;28;19912;-72
2022/02/26 09:00:33;;;;;;;;;;;3.40;93.50;;;;;;5082085;28;19923;-71
2022/02/26 09:02:58;;;;;;;;;;;3.50;93.70;;;;;;5063516;28;19943;-71
2022/02/26 09:05:24;;;;;;;;;;;3.60;93.50;;;;;;5081680;28;19919;-71
2022/02/26 09:07:50;;;;;;;;;;;3.50;93.70;;;;;;5082183;28;19939;-70
2022/02/26 09:10:15;;;;;;;;;;;3.60;93.60;;;;;;5072700;28;19980;-70
2022/02/26 09:12:41;;;;;;;;;;;3.70;93.00;;;;;;5067220;28;19917;-69
2022/02/26 09:15:08;;;;;;;;;;;3.80;92.10;;;;;;5061434;28;19908;-69
2022/02/26 09:17:33;;;;;;;;;;;4.00;92.20;;;;;;5062581;28;19909;-69
2022/02/26 09:19:59;;;;;;;;;;;4.00;92.00;;;;;;5065562;28;19909;-72
2022/02/26 09:22:25;;;;;;;;;;;4.20;91.70;;;;;;5064339;28;19909;-71
2022/02/26 09:24:50;;;;;;;;;;;4.30;91.10;;;;;;5066289;28;20211;-71
2022/02/26 09:27:16;;;;;;;;;;;4.50;90.20;;;;;;5065502;28;19913;-69
2022/02/26 09:29:42;;;;;;;;;;;4.60;90.20;;;;;;5048018;28;19915;-73
2022/02/26 09:32:08;;;;;;;;;;;4.70;90.10;;;;;;5047767;28;19917;-73
2022/02/26 09:34:33;;;;;;;;;;;4.80;89.80;;;;;;5047577;28;20227;-74
2022/02/26 09:36:59;;;;;;;;;;;4.90;89.30;;;;;;5047878;28;19972;-73
2022/02/26 09:39:25;;;;;;;;;;;4.90;88.50;;;;;;5070827;28;20150;-66
2022/02/26 09:41:51;;;;;;;;;;;5.10;88.00;;;;;;5085035;28;20203;-65
2022/02/26 09:44:19;;;;;;;;;;;5.20;88.80;;;;;;5085440;28;19962;-66
2022/02/26 09:46:44;;;;;;;;;;;5.30;84.80;;;;;;5085309;28;19924;-64
2022/02/26 09:49:10;;;;;;;;;;;5.30;82.70;;;;;;5085093;28;19915;-69
2022/02/26 09:51:39;;;;;;;;;;;5.30;83.00;;;;;;5084868;28;19908;-74
2022/02/26 09:54:04;;;;;;;;;;;5.50;83.10;;;;;;5067617;28;19908;-73
2022/02/26 09:56:30;;;;;;;;;;;5.70;81.10;;;;;;5085108;28;19922;-73
2022/02/26 09:58:56;;;;;;;;;;;6.00;76.80;;;;;;5085293;28;19961;-74
2022/02/26 10:01:21;;;;;;;;;;;6.00;77.20;;;;;;5067025;28;19908;-73
2022/02/26 10:03:47;;;;;;;;;;;6.00;79.10;;;;;;5084421;28;19912;-73
2022/02/26 10:06:17;;;;;;;;;;;6.20;76.50;;;;;;5067298;28;19913;-73
2022/02/26 10:08:47;;;;;;;;;;;6.20;74.60;;;;;;5066885;28;19916;-74
2022/02/26 10:11:29;;;;;;;;;;;6.10;75.60;;;;;;5049607;28;19908;-73
2022/02/26 10:14:04;;;;;;;;;;;6.10;77.00;;;;;;5100697;28;19908;-74
2022/02/26 10:16:42;;;;;;;;;;;6.30;75.80;;;;;;5084976;28;19920;-74
2022/02/26 10:19:07;;;;;;;;;;;6.30;72.80;;;;;;5084444;28;19915;-74
2022/02/26 10:21:34;;;;;;;;;;;6.20;70.40;;;;;;5084503;28;19909;-74
2022/02/26 10:23:59;;;;;;;;;;;6.30;71.50;;;;;;5099718;28;20108;-74
2022/02/26 10:26:26;;;;;;;;;;;6.30;73.70;;;;;;5067055;28;20200;-74
2022/02/26 10:28:52;;;;;;;;;;;6.30;73.50;;;;;;5083866;28;19962;-74
2022/02/26 10:31:19;;;;;;;;;;;6.40;75.40;;;;;;5065806;28;19977;-75
2022/02/26 10:33:44;;;;;;;;;;;6.50;72.00;;;;;;5049794;28;19950;-74
2022/02/26 10:36:10;;;;;;;;;;;6.60;69.50;;;;;;5084427;28;20138;-73
2022/02/26 10:38:36;;;;;;;;;;;6.70;68.00;;;;;;5082859;28;20397;-74
2022/02/26 10:41:06;;;;;;;;;;;6.80;68.90;;;;;;5066327;28;19915;-73
2022/02/26 10:43:44;;;;;;;;;;;7.10;69.80;;;;;;5068144;28;19909;-73
2022/02/26 10:46:30;;;;;;;;;;;7.20;67.80;;;;;;5083626;28;19916;-73
2022/02/26 10:49:07;;;;;;;;;;;7.00;67.70;;;;;;5050098;28;20192;-72
2022/02/26 10:51:40;;;;;;;;;;;7.10;67.20;;;;;;5083743;28;19916;-71
2022/02/26 10:54:10;;;;;;;;;;;7.30;68.00;;;;;;5064382;28;19943;-69
2022/02/26 10:56:38;;;;;;;;;;;7.30;66.30;;;;;;5083098;28;19912;-72
2022/02/26 10:59:07;;;;;;;;;;;7.50;65.90;;;;;;5065540;28;19962;-71
2022/02/26 11:01:33;;;;;;;;;;;7.10;66.90;;;;;;5082931;28;20246;-74
2022/02/26 11:04:01;;;;;;;;;;;7.30;68.00;;;;;;5083062;28;19916;-73
2022/02/26 11:06:29;;;;;;;;;;;7.40;67.50;;;;;;5082853;28;20324;-74
2022/02/26 11:08:54;;;;;;;;;;;7.50;69.10;;;;;;5082699;28;20010;-70
2022/02/26 11:11:22;;;;;;;;;;;7.60;68.00;;;;;;5064987;28;20138;-69
2022/02/26 11:13:52;;;;;;;;;;;7.50;67.50;;;;;;5083268;28;19916;-70
2022/02/26 11:16:19;;;;;;;;;;;7.60;69.40;;;;;;5048828;28;19962;-70
2022/02/26 11:18:51;;;;;;;;;;;8.10;67.70;;;;;;5065088;28;20141;-70
2022/02/26 11:21:18;;;;;;;;;;;8.20;63.60;;;;;;5064863;28;19987;-70
2022/02/26 11:23:45;;;;;;;;;;;8.10;64.00;;;;;;5047771;28;20179;-70
2022/02/26 11:26:11;;;;;;;;;;;8.20;64.50;;;;;;5064822;28;19921;-70
2022/02/26 11:28:41;;;;;;;;;;;8.40;61.30;;;;;;5083091;28;20207;-70
2022/02/26 11:31:09;;;;;;;;;;;8.40;60.60;;;;;;5064619;28;19940;-71
2022/02/26 11:33:35;;;;;;;;;;;8.80;59.10;;;;;;5064958;28;19908;-70
2022/02/26 11:36:02;;;;;;;;;;;9.10;60.30;;;;;;5082878;28;20226;-69
2022/02/26 11:38:27;;;;;;;;;;;9.40;60.50;;;;;;5082916;28;20131;-70
2022/02/26 11:41:15;;;;;;;;;;;9.60;58.60;;;;;;5064589;28;19982;-70
2022/02/26 11:43:44;;;;;;;;;;;9.20;58.60;;;;;;5098297;28;19912;-72
2022/02/26 11:46:24;;;;;;;;;;;8.60;59.90;;;;;;5064817;28;19912;-71
2022/02/26 11:48:50;;;;;;;;;;;8.40;61.70;;;;;;5097937;28;19940;-68
2022/02/26 11:51:18;;;;;;;;;;;8.10;66.60;;;;;;5082240;28;19923;-68
2022/02/26 11:53:45;;;;;;;;;;;7.60;65.60;;;;;;5082105;28;19948;-69
2022/02/26 11:56:10;;;;;;;;;;;7.40;67.70;;;;;;5081538;28;19909;-66
2022/02/26 11:58:38;;;;;;;;;;;7.40;68.50;;;;;;5082329;28;20273;-67
2022/02/26 12:01:16;;;;;;;;;;;7.20;70.00;;;;;;5082292;28;19909;-69
2022/02/26 12:03:43;;;;;;;;;;;7.10;68.80;;;;;;5064129;28;19921;-68
2022/02/26 12:06:09;;;;;;;;;;;6.90;69.00;;;;;;5081930;28;19920;-72
2022/02/26 12:08:44;;;;;;;;;;;6.70;69.60;;;;;;5081776;28;19912;-68
2022/02/26 12:11:23;;;;;;;;;;;6.60;70.20;;;;;;5063161;28;19908;-67
2022/02/26 12:14:00;;;;;;;;;;;6.70;71.80;;;;;;5081912;28;19915;-67
2022/02/26 12:16:36;;;;;;;;;;;6.80;71.60;;;;;;5081913;28;20107;-67
2022/02/26 12:19:08;;;;;;;;;;;6.70;72.10;;;;;;5081510;28;20259;-67
2022/02/26 12:21:37;;;;;;;;;;;6.70;72.50;;;;;;5081566;28;19915;-67
2022/02/26 12:24:07;;;;;;;;;;;6.70;73.30;;;;;;5081851;28;19908;-66
2022/02/26 12:26:58;;;;;;;;;;;6.70;71.80;;;;;;5081729;28;19925;-66
2022/02/26 12:29:40;;;;;;;;;;;6.70;71.40;;;;;;5082048;28;19915;-67
2022/02/26 12:32:06;;;;;;;;;;;6.80;72.40;;;;;;5081590;28;19908;-68
2022/02/26 12:34:37;;;;;;;;;;;6.80;72.00;;;;;;5081527;28;19908;-68
2022/02/26 12:37:12;;;;;;;;;;;6.80;72.40;;;;;;5064310;28;19975;-67
2022/02/26 12:39:39;;;;;;;;;;;6.70;72.40;;;;;;5074430;28;19916;-66
2022/02/26 12:42:08;;;;;;;;;;;6.60;70.70;;;;;;5081804;28;19943;-66
2022/02/26 12:44:38;;;;;;;;;;;6.50;72.20;;;;;;5082097;28;19908;-68
2022/02/26 12:47:08;;;;;;;;;;;6.40;72.00;;;;;;5080812;28;19916;-71
2022/02/26 12:49:34;;;;;;;;;;;6.50;73.20;;;;;;5081683;28;19983;-71
2022/02/26 12:52:00;;;;;;;;;;;6.50;74.60;;;;;;5080706;28;19916;-69
2022/02/26 12:54:30;;;;;;;;;;;6.60;74.80;;;;;;5066675;28;19915;-69
2022/02/26 12:56:56;;;;;;;;;;;6.30;75.40;;;;;;5085747;28;19967;-69
2022/02/26 12:59:22;;;;;;;;;;;6.30;76.20;;;;;;5085471;28;19965;-70
2022/02/26 13:01:49;;;;;;;;;;;6.40;76.90;;;;;;5085156;28;19923;-69
2022/02/26 13:04:28;;;;;;;;;;;6.80;76.60;;;;;;5084527;28;19912;-70
2022/02/26 13:06:55;;;;;;;;;;;7.20;73.40;;;;;;5068124;28;19987;-70
2022/02/26 13:09:21;;;;;;;;;;;7.50;71.50;;;;;;5085574;28;19954;-71
2022/02/26 13:11:48;;;;;;;;;;;7.70;71.40;;;;;;5085217;28;19916;-69
2022/02/26 13:14:14;;;;;;;;;;;8.00;70.20;;;;;;5050991;28;19908;-69
2022/02/26 13:16:42;;;;;;;;;;;8.10;68.20;;;;;;5085306;28;20003;-69
2022/02/26 13:19:09;;;;;;;;;;;7.90;69.50;;;;;;5084905;28;20231;-70
2022/02/26 13:21:38;;;;;;;;;;;7.70;69.40;;;;;;5067053;28;19912;-69
2022/02/26 13:24:07;;;;;;;;;;;7.60;71.00;;;;;;5066279;28;19916;-69
2022/02/26 13:26:34;;;;;;;;;;;7.50;71.90;;;;;;5083968;28;19920;-69
2022/02/26 13:29:02;;;;;;;;;;;7.60;71.80;;;;;;5084368;28;19921;-69
2022/02/26 13:31:40;;;;;;;;;;;7.80;72.20;;;;;;5049874;28;19951;-68
2022/02/26 13:34:21;;;;;;;;;;;7.60;71.60;;;;;;5083701;28;19909;-68
2022/02/26 13:36:50;;;;;;;;;;;7.70;70.90;;;;;;5049593;28;19909;-68
2022/02/26 13:39:19;;;;;;;;;;;7.40;70.20;;;;;;5049095;28;19909;-68
2022/02/26 13:41:45;;;;;;;;;;;7.20;72.40;;;;;;5083974;28;19979;-68
2022/02/26 13:44:12;;;;;;;;;;;7.30;73.10;;;;;;5083799;28;19908;-68
2022/02/26 13:46:44;;;;;;;;;;;7.30;70.20;;;;;;5084008;28;19920;-69
2022/02/26 13:49:14;;;;;;;;;;;7.30;70.30;;;;;;5083454;28;19978;-69
2022/02/26 13:51:42;;;;;;;;;;;7.40;70.00;;;;;;5065877;28;20010;-63
2022/02/26 13:54:11;;;;;;;;;;;7.60;69.70;;;;;;5081425;28;19924;-64
2022/02/26 13:56:39;;;;;;;;;;;7.80;70.70;;;;;;5083723;28;20146;-68
2022/02/26 13:59:13;;;;;;;;;;;8.20;65.30;;;;;;5065671;28;19909;-68
2022/02/26 14:01:55;;;;;;;;;;;9.20;62.10;;;;;;5083113;28;19992;-69
2022/02/26 14:04:25;;;;;;;;;;;10.70;56.10;;;;;;5082896;28;20198;-68
2022/02/26 14:06:51;;;;;;;;;;;10.60;54.00;;;;;;5083247;28;19918;-68
2022/02/26 14:09:26;;;;;;;;;;;10.80;54.10;;;;;;5077591;28;19916;-69
2022/02/26 14:12:00;;;;;;;;;;;10.20;54.70;;;;;;5074405;28;19927;-69
2022/02/26 14:14:31;;;;;;;;;;;9.80;56.40;;;;;;5065094;28;19989;-69
2022/02/26 14:17:19;;;;;;;;;;;9.40;58.60;;;;;;5082910;28;19936;-69
2022/02/26 14:19:46;;;;;;;;;;;9.20;60.00;;;;;;5082506;28;19995;-69
2022/02/26 14:22:13;;;;;;;;;;;8.90;60.50;;;;;;5082540;28;19999;-69
2022/02/26 14:24:43;;;;;;;;;;;8.70;62.00;;;;;;5083098;28;19912;-68
2022/02/26 14:27:30;;;;;;;;;;;8.50;63.00;;;;;;5082538;28;19920;-72
2022/02/26 14:30:04;;;;;;;;;;;8.40;63.60;;;;;;5067398;28;19908;-71
2022/02/26 14:32:34;;;;;;;;;;;8.40;62.80;;;;;;5064742;28;19947;-71
2022/02/26 14:34:59;;;;;;;;;;;8.60;63.00;;;;;;5064796;28;19909;-72
2022/02/26 14:37:25;;;;;;;;;;;9.20;61.30;;;;;;5082905;28;19995;-72